Time;durP1;ratioP1;P1;durP2;ratioP2;P2;SDS_P1;SDS_P2;PMS_P1;PMS_P2;Temp;Humidity;BMP_temperature;BMP_pressure;BME280_temperature;BME280_humidity;BME280_pressure;Samples;Min_cycle;Max_cycle;Signal;HPM_P1;HPM_P2
2022/04/15 00:01:52;;;;;;;;;;;12.70;99.90;;;;;;4956038;28;20355;-83
2022/04/15 00:04:23;;;;;;;;;;;12.70;99.90;;;;;;4969787;28;20363;-83
2022/04/15 00:07:15;;;;;;;;;;;12.70;99.90;;;;;;4955794;28;19923;-83
2022/04/15 00:10:22;;;;;;;;;;;12.70;99.90;;;;;;4959145;28;20323;-83
2022/04/15 00:12:55;;;;;;;;;;;12.60;99.90;;;;;;4958112;28;19921;-84
2022/04/15 00:15:33;;;;;;;;;;;;;;;;;;;;;
2022/04/15 00:18:07;;;;;;;;;;;12.50;99.90;;;;;;4958380;28;19914;-83
2022/04/15 00:20:43;;;;;;;;;;;;;;;;;;;;;
2022/04/15 00:23:34;;;;;;;;;;;12.50;99.90;;;;;;4957041;28;20368;-83
2022/04/15 00:26:27;;;;;;;;;;;12.40;1.00;;;;;;4959512;28;19922;-83
2022/04/15 00:29:06;;;;;;;;;;;12.40;1.00;;;;;;4957165;28;19915;-83
2022/04/15 00:31:34;;;;;;;;;;;12.40;1.00;;;;;;4961976;28;19918;-84
2022/04/15 00:34:31;;;;;;;;;;;12.30;1.00;;;;;;4959082;28;19977;-83
2022/04/15 00:37:07;;;;;;;;;;;;;;;;;;;;;
2022/04/15 00:39:45;;;;;;;;;;;;;;;;;;;;;
2022/04/15 00:42:37;;;;;;;;;;;12.20;99.90;;;;;;4959758;28;20490;-84
2022/04/15 00:45:12;;;;;;;;;;;12.20;38.70;;;;;;4960398;28;19930;-83
2022/04/15 00:47:49;;;;;;;;;;;12.20;99.90;;;;;;4975533;28;20147;-83
2022/04/15 00:50:15;;;;;;;;;;;12.20;99.90;;;;;;4960980;28;19922;-83
2022/04/15 00:53:06;;;;;;;;;;;12.10;99.90;;;;;;4958464;28;19923;-83
2022/04/15 00:55:31;;;;;;;;;;;12.10;99.90;;;;;;4960323;28;19917;-84
2022/04/15 00:58:24;;;;;;;;;;;12.10;99.90;;;;;;4957870;28;19922;-82
2022/04/15 01:20:18;;;;;;;;;;;11.80;99.90;;;;;;4997502;28;19952;-83
2022/04/15 01:26:18;;;;;;;;;;;;;;;;;;;;;
2022/04/15 01:32:22;;;;;;;;;;;;;;;;;;;;;
2022/04/15 01:38:22;;;;;;;;;;;;;;;;;;;;;
2022/04/15 01:47:17;;;;;;;;;;;;;;;;;;;;;
2022/04/15 01:59:10;;;;;;;;;;;11.30;99.90;;;;;;4972470;28;19910;-83
2022/04/15 02:08:10;;;;;;;;;;;11.20;1.00;;;;;;4967178;28;19910;-82
2022/04/15 02:17:19;;;;;;;;;;;11.10;1.00;;;;;;4976367;28;19910;-82
2022/04/15 02:26:09;;;;;;;;;;;;;;;;;;;;;
2022/04/15 02:29:01;;;;;;;;;;;11.00;5.20;;;;;;4977513;28;19932;-83
2022/04/15 02:35:11;;;;;;;;;;;;;;;;;;;;;
2022/04/15 02:44:12;;;;;;;;;;;10.80;1.00;;;;;;4969175;28;19910;-83
2022/04/15 02:47:18;;;;;;;;;;;10.80;99.90;;;;;;4962200;28;19918;-83
2022/04/15 02:53:05;;;;;;;;;;;;;;;;;;;;;
2022/04/15 03:04:49;;;;;;;;;;;10.70;1.00;;;;;;4979006;28;19917;-83
2022/04/15 03:10:33;;;;;;;;;;;;;;;;;;;;;
2022/04/15 03:13:19;;;;;;;;;;;10.60;34.90;;;;;;4975959;28;20001;-82
2022/04/15 03:19:21;;;;;;;;;;;;;;;;;;;;;
2022/04/15 03:43:26;;;;;;;;;;;10.40;1.00;;;;;;4965903;28;19920;-83
2022/04/15 03:46:34;;;;;;;;;;;10.40;1.00;;;;;;4989602;28;19910;-82
2022/04/15 03:58:37;;;;;;;;;;;;;;;;;;;;;
2022/04/15 04:01:15;;;;;;;;;;;10.20;1.00;;;;;;4980621;28;20357;-82
2022/04/15 04:13:32;;;;;;;;;;;;;;;;;;;;;
2022/04/15 04:25:59;;;;;;;;;;;10.00;99.90;;;;;;4970614;28;19910;-84
2022/04/15 04:37:51;;;;;;;;;;;10.10;99.90;;;;;;4971974;28;20001;-83
2022/04/15 04:43:31;;;;;;;;;;;10.10;99.90;;;;;;4970640;28;19925;-83
2022/04/15 04:46:17;;;;;;;;;;;10.10;99.90;;;;;;4970088;28;19983;-83
2022/04/15 04:49:19;;;;;;;;;;;;;;;;;;;;;
2022/04/15 04:52:15;;;;;;;;;;;;;;;;;;;;;
2022/04/15 05:07:14;;;;;;;;;;;10.50;99.90;;;;;;4974763;28;19910;-83
2022/04/15 05:09:57;;;;;;;;;;;10.60;99.90;;;;;;4960769;28;19910;-83
2022/04/15 05:13:02;;;;;;;;;;;10.70;7.80;;;;;;4976315;28;19918;-83
2022/04/15 05:48:58;;;;;;;;;;;;;;;;;;;;;
2022/04/15 05:54:17;;;;;;;;;;;24.20;99.90;;;;;;4968007;28;19922;-82
2022/04/15 05:59:36;;;;;;;;;;;20.80;99.90;;;;;;4964478;28;20332;-82
2022/04/15 06:02:02;;;;;;;;;;;19.30;99.90;;;;;;4991095;28;19917;-82
2022/04/15 06:04:27;;;;;;;;;;;18.60;99.90;;;;;;4979681;28;19910;-83
2022/04/15 06:06:53;;;;;;;;;;;18.20;99.90;;;;;;4979926;28;19922;-82
2022/04/15 06:09:21;;;;;;;;;;;17.70;99.90;;;;;;4968011;28;19910;-82
2022/04/15 06:15:06;;;;;;;;;;;;;;;;;;;;;
2022/04/15 06:18:13;;;;;;;;;;;17.70;99.90;;;;;;4983890;28;19982;-82
2022/04/15 06:24:14;;;;;;;;;;;;;;;;;;;;;
2022/04/15 06:27:00;;;;;;;;;;;16.40;99.90;;;;;;4974796;28;19973;-83
2022/04/15 06:29:37;;;;;;;;;;;16.00;99.90;;;;;;4955709;28;19914;-82
2022/04/15 06:35:21;;;;;;;;;;;;;;;;;;;;;
2022/04/15 06:37:47;;;;;;;;;;;14.90;99.90;;;;;;4976879;28;20002;-81
2022/04/15 06:40:13;;;;;;;;;;;14.50;99.90;;;;;;4978533;28;19956;-81
2022/04/15 06:42:38;;;;;;;;;;;14.20;99.90;;;;;;4973117;28;19918;-80
2022/04/15 06:45:04;;;;;;;;;;;14.10;99.90;;;;;;4974474;28;19922;-81
2022/04/15 06:47:30;;;;;;;;;;;14.00;99.90;;;;;;4974034;28;19985;-81
2022/04/15 06:49:55;;;;;;;;;;;14.00;99.90;;;;;;4974583;28;19915;-79
2022/04/15 06:52:23;;;;;;;;;;;13.90;99.90;;;;;;4972341;28;20370;-81
2022/04/15 06:54:48;;;;;;;;;;;13.90;99.90;;;;;;4976526;28;19945;-81
2022/04/15 06:57:14;;;;;;;;;;;13.80;99.90;;;;;;4955762;28;19914;-80
2022/04/15 06:59:40;;;;;;;;;;;13.70;99.90;;;;;;4974145;28;20838;-80
2022/04/15 07:02:05;;;;;;;;;;;13.60;99.90;;;;;;4986427;23;20491;-80
2022/04/15 07:04:32;;;;;;;;;;;13.60;1.00;;;;;;4977823;28;19914;-80
2022/04/15 07:06:57;;;;;;;;;;;13.50;1.00;;;;;;4993251;28;20497;-81
2022/04/15 07:09:23;;;;;;;;;;;13.50;1.00;;;;;;4990394;28;19953;-80
2022/04/15 07:11:51;;;;;;;;;;;13.50;1.00;;;;;;4990301;28;19922;-79
2022/04/15 07:14:17;;;;;;;;;;;13.50;1.00;;;;;;4965142;28;19965;-81
2022/04/15 07:16:42;;;;;;;;;;;13.40;1.00;;;;;;4979172;28;19929;-81
2022/04/15 07:19:08;;;;;;;;;;;13.40;1.00;;;;;;4973436;28;19993;-81
2022/04/15 07:21:34;;;;;;;;;;;13.40;1.00;;;;;;4974804;28;19925;-79
2022/04/15 07:23:59;;;;;;;;;;;13.40;1.00;;;;;;4979218;28;19914;-80
2022/04/15 07:26:25;;;;;;;;;;;13.40;1.00;;;;;;4976295;28;19921;-80
2022/04/15 07:28:50;;;;;;;;;;;13.20;1.00;;;;;;4976977;28;19960;-81
2022/04/15 07:31:16;;;;;;;;;;;13.20;1.00;;;;;;4976635;28;19918;-81
2022/04/15 07:33:41;;;;;;;;;;;13.10;1.00;;;;;;4976407;28;19914;-81
2022/04/15 07:36:31;;;;;;;;;;;13.10;1.00;;;;;;4979082;28;19921;-81
2022/04/15 07:38:52;;;;;;;;;;;13.10;1.00;;;;;;4975868;28;19922;-82
2022/04/15 07:41:18;;;;;;;;;;;13.10;1.00;;;;;;4977441;28;20401;-81
2022/04/15 07:43:44;;;;;;;;;;;13.00;1.00;;;;;;4985391;28;20278;-81
2022/04/15 07:46:10;;;;;;;;;;;12.90;1.00;;;;;;4982599;28;19969;-81
2022/04/15 07:48:36;;;;;;;;;;;12.90;1.00;;;;;;4984663;28;19918;-82
2022/04/15 07:51:10;;;;;;;;;;;12.80;1.00;;;;;;4972715;28;20012;-85
2022/04/15 07:53:36;;;;;;;;;;;12.70;1.00;;;;;;4996156;28;19921;-85
2022/04/15 07:56:02;;;;;;;;;;;12.50;29.10;;;;;;4989648;28;19910;-85
2022/04/15 07:58:27;;;;;;;;;;;12.60;99.90;;;;;;4990638;28;19914;-85
2022/04/15 08:00:53;;;;;;;;;;;12.60;99.90;;;;;;4992369;28;19914;-85
2022/04/15 08:03:20;;;;;;;;;;;12.60;75.10;;;;;;4979959;28;19918;-84
2022/04/15 08:05:49;;;;;;;;;;;12.50;1.00;;;;;;4988600;28;19914;-84
2022/04/15 08:08:15;;;;;;;;;;;12.60;1.00;;;;;;4985381;28;19917;-84
2022/04/15 08:10:40;;;;;;;;;;;12.70;1.00;;;;;;4992822;28;19914;-85
2022/04/15 08:13:06;;;;;;;;;;;12.90;1.00;;;;;;4998066;28;19914;-85
2022/04/15 08:15:31;;;;;;;;;;;13.00;1.00;;;;;;4991007;28;19914;-85
2022/04/15 08:17:57;;;;;;;;;;;13.20;1.00;;;;;;4989041;28;19918;-84
2022/04/15 08:20:22;;;;;;;;;;;13.30;1.00;;;;;;4991492;28;19986;-84
2022/04/15 08:22:48;;;;;;;;;;;13.40;99.90;;;;;;4991490;28;19910;-85
2022/04/15 08:25:16;;;;;;;;;;;13.50;99.90;;;;;;4991487;28;20484;-85
2022/04/15 08:27:42;;;;;;;;;;;13.60;99.90;;;;;;4990708;28;19910;-85
2022/04/15 08:30:10;;;;;;;;;;;13.70;99.90;;;;;;4991524;28;19942;-85
2022/04/15 08:32:38;;;;;;;;;;;13.70;99.90;;;;;;4990509;28;19929;-85
2022/04/15 08:35:07;;;;;;;;;;;13.70;99.90;;;;;;4991204;28;20017;-85
2022/04/15 08:37:33;;;;;;;;;;;13.80;99.90;;;;;;4972049;29;19934;-85
2022/04/15 08:39:59;;;;;;;;;;;13.90;99.90;;;;;;4973756;28;19910;-84
2022/04/15 08:42:24;;;;;;;;;;;14.00;99.90;;;;;;4986527;28;19917;-85
2022/04/15 08:44:51;;;;;;;;;;;14.20;99.90;;;;;;4990810;28;19914;-85
2022/04/15 08:47:16;;;;;;;;;;;14.90;99.90;;;;;;4988543;28;20025;-85
2022/04/15 08:49:42;;;;;;;;;;;15.70;99.90;;;;;;4988491;28;19914;-85
2022/04/15 08:52:08;;;;;;;;;;;16.50;99.90;;;;;;4973153;28;19918;-85
2022/04/15 08:54:34;;;;;;;;;;;16.50;99.90;;;;;;4985045;28;19925;-85
2022/04/15 08:57:03;;;;;;;;;;;16.50;99.90;;;;;;4984872;28;19910;-85
2022/04/15 08:59:29;;;;;;;;;;;16.80;99.90;;;;;;4988993;28;19910;-85
2022/04/15 09:01:56;;;;;;;;;;;17.80;99.90;;;;;;4985570;28;19914;-85
2022/04/15 09:04:22;;;;;;;;;;;18.80;99.90;;;;;;4975861;28;19940;-86
2022/04/15 09:06:58;;;;;;;;;;;18.90;99.90;;;;;;4971854;28;20394;-85
2022/04/15 09:09:29;;;;;;;;;;;19.10;99.90;;;;;;4977151;28;20008;-85
2022/04/15 09:12:04;;;;;;;;;;;19.10;99.90;;;;;;4970961;28;19964;-85
2022/04/15 09:14:29;;;;;;;;;;;19.10;99.90;;;;;;4979389;28;19910;-85
2022/04/15 09:17:05;;;;;;;;;;;18.90;99.90;;;;;;4969334;28;19933;-85
2022/04/15 09:19:36;;;;;;;;;;;18.90;99.90;;;;;;4971082;28;19997;-83
2022/04/15 09:22:04;;;;;;;;;;;19.10;99.90;;;;;;4988539;28;19910;-84
2022/04/15 09:24:37;;;;;;;;;;;19.50;99.90;;;;;;4987820;28;19910;-84
2022/04/15 09:27:26;;;;;;;;;;;19.60;99.90;;;;;;4986257;28;19957;-85
2022/04/15 09:29:52;;;;;;;;;;;19.80;99.90;;;;;;4985766;28;19910;-84
2022/04/15 09:32:22;;;;;;;;;;;19.70;99.90;;;;;;4966867;28;19954;-85
2022/04/15 09:34:55;;;;;;;;;;;19.90;99.90;;;;;;4982589;28;20422;-84
2022/04/15 09:37:31;;;;;;;;;;;20.30;99.90;;;;;;4982185;28;19920;-84
2022/04/15 09:40:03;;;;;;;;;;;20.30;99.90;;;;;;4982275;28;19922;-85
2022/04/15 09:42:34;;;;;;;;;;;20.80;99.90;;;;;;4982199;28;19914;-85
2022/04/15 09:45:22;;;;;;;;;;;20.90;99.90;;;;;;4983536;28;19910;-84
2022/04/15 09:48:04;;;;;;;;;;;21.10;99.90;;;;;;4982003;28;20019;-84
2022/04/15 09:50:42;;;;;;;;;;;21.40;99.90;;;;;;4980597;28;19914;-85
2022/04/15 09:53:08;;;;;;;;;;;22.20;99.90;;;;;;4979509;28;19949;-85
2022/04/15 09:55:35;;;;;;;;;;;22.50;99.90;;;;;;4980300;28;20330;-85
2022/04/15 09:58:04;;;;;;;;;;;22.30;99.90;;;;;;4980192;28;19910;-85
2022/04/15 10:00:30;;;;;;;;;;;22.10;99.90;;;;;;4978450;28;19917;-85
2022/04/15 10:02:56;;;;;;;;;;;22.20;99.90;;;;;;4978910;28;19918;-85
2022/04/15 10:05:22;;;;;;;;;;;24.00;99.90;;;;;;4977877;28;19918;-84
2022/04/15 10:07:57;;;;;;;;;;;24.70;99.90;;;;;;4959722;28;19918;-85
2022/04/15 10:10:27;;;;;;;;;;;25.80;99.90;;;;;;4978209;28;20048;-85
2022/04/15 10:12:52;;;;;;;;;;;25.60;99.90;;;;;;4976922;28;20016;-85
2022/04/15 10:15:18;;;;;;;;;;;27.00;99.90;;;;;;4976992;28;20354;-85
2022/04/15 10:17:44;;;;;;;;;;;28.30;99.90;;;;;;4977117;28;19937;-85
2022/04/15 10:20:12;;;;;;;;;;;28.50;99.90;;;;;;4964364;28;20048;-85
2022/04/15 10:22:41;;;;;;;;;;;28.10;99.90;;;;;;4977220;28;20381;-86
2022/04/15 10:25:14;;;;;;;;;;;27.40;99.90;;;;;;4960753;28;19920;-85
2022/04/15 10:27:42;;;;;;;;;;;27.10;99.90;;;;;;4976572;28;19914;-85
2022/04/15 10:30:20;;;;;;;;;;;28.20;99.90;;;;;;4976972;28;19914;-84
2022/04/15 10:32:47;;;;;;;;;;;29.60;99.90;;;;;;4976333;28;19918;-84
2022/04/15 10:35:32;;;;;;;;;;;30.40;99.90;;;;;;4969369;28;19981;-84
2022/04/15 10:38:02;;;;;;;;;;;30.20;99.90;;;;;;4976912;28;20278;-84
2022/04/15 10:40:33;;;;;;;;;;;30.10;99.90;;;;;;4976663;28;19920;-84
2022/04/15 10:43:03;;;;;;;;;;;29.60;99.90;;;;;;4976169;28;19973;-84
2022/04/15 10:45:29;;;;;;;;;;;30.30;99.90;;;;;;4976018;28;19911;-84
2022/04/15 10:48:00;;;;;;;;;;;30.70;99.90;;;;;;4975825;28;20275;-84
2022/04/15 10:50:38;;;;;;;;;;;30.70;99.90;;;;;;4961513;28;19981;-84
2022/04/15 10:53:26;;;;;;;;;;;30.00;99.90;;;;;;4976678;28;19918;-84
2022/04/15 10:55:57;;;;;;;;;;;29.60;99.90;;;;;;4973093;28;19945;-84
2022/04/15 10:58:23;;;;;;;;;;;29.30;99.90;;;;;;4968969;28;19915;-84
2022/04/15 11:01:18;;;;;;;;;;;30.60;99.90;;;;;;4975937;28;19911;-84
2022/04/15 11:03:53;;;;;;;;;;;31.60;99.90;;;;;;4970971;28;20013;-85
2022/04/15 11:06:39;;;;;;;;;;;;;;;;;;;;;
2022/04/15 11:09:15;;;;;;;;;;;31.50;99.90;;;;;;4976138;28;19914;-85
2022/04/15 11:11:41;;;;;;;;;;;31.80;99.90;;;;;;4974805;28;19914;-84
2022/04/15 11:14:08;;;;;;;;;;;31.90;99.90;;;;;;4975505;28;20408;-84
2022/04/15 11:16:42;;;;;;;;;;;31.70;99.90;;;;;;4975379;28;19921;-85
2022/04/15 11:19:09;;;;;;;;;;;31.10;99.90;;;;;;4976813;28;19919;-84
2022/04/15 11:21:37;;;;;;;;;;;30.20;99.90;;;;;;4976123;28;19921;-84
2022/04/15 11:24:04;;;;;;;;;;;29.30;99.90;;;;;;4961919;28;19993;-84
2022/04/15 11:26:30;;;;;;;;;;;28.80;99.90;;;;;;4977209;28;19974;-84
2022/04/15 11:28:57;;;;;;;;;;;28.60;99.90;;;;;;4962217;28;19921;-85
2022/04/15 11:31:29;;;;;;;;;;;29.40;99.90;;;;;;4975375;28;19957;-84
2022/04/15 11:33:56;;;;;;;;;;;30.90;99.90;;;;;;4975214;28;19938;-84
2022/04/15 11:36:22;;;;;;;;;;;31.00;99.90;;;;;;4975554;28;19918;-84
2022/04/15 11:38:48;;;;;;;;;;;30.00;99.90;;;;;;4976112;28;19911;-84
2022/04/15 11:41:21;;;;;;;;;;;29.40;99.90;;;;;;4976153;28;19921;-85
2022/04/15 11:43:59;;;;;;;;;;;29.80;99.90;;;;;;4969652;28;19914;-85
2022/04/15 11:46:25;;;;;;;;;;;30.10;99.90;;;;;;4962450;28;19910;-85
2022/04/15 11:48:50;;;;;;;;;;;28.60;99.90;;;;;;4975922;28;19978;-84
2022/04/15 11:51:22;;;;;;;;;;;27.90;99.90;;;;;;4975462;28;19910;-84
2022/04/15 11:53:47;;;;;;;;;;;28.90;99.90;;;;;;4975277;28;19917;-84
2022/04/15 11:56:15;;;;;;;;;;;29.20;99.90;;;;;;4975956;28;20000;-84
2022/04/15 11:58:41;;;;;;;;;;;28.80;99.90;;;;;;4963364;28;20474;-84
2022/04/15 12:01:07;;;;;;;;;;;28.10;99.90;;;;;;4977415;28;19956;-84
2022/04/15 12:03:33;;;;;;;;;;;28.60;99.90;;;;;;4976637;28;19991;-84
2022/04/15 12:05:58;;;;;;;;;;;29.50;99.90;;;;;;4976299;28;20093;-84
2022/04/15 12:08:26;;;;;;;;;;;28.20;99.90;;;;;;4976551;28;20294;-84
2022/04/15 12:10:53;;;;;;;;;;;27.60;99.90;;;;;;4973642;28;19914;-84
2022/04/15 12:13:18;;;;;;;;;;;28.60;99.90;;;;;;4976852;28;20417;-84
2022/04/15 12:15:45;;;;;;;;;;;28.40;99.90;;;;;;4977279;28;19914;-84
2022/04/15 12:18:10;;;;;;;;;;;28.80;99.90;;;;;;4977208;28;19969;-84
2022/04/15 12:20:37;;;;;;;;;;;28.30;99.90;;;;;;4977133;28;20386;-84
2022/04/15 12:23:03;;;;;;;;;;;29.00;99.90;;;;;;4979734;28;19972;-84
2022/04/15 12:26:06;;;;;;;;;;;29.20;99.90;;;;;;4980657;28;19990;-84
2022/04/15 12:30:58;;;;;;;;;;;26.50;99.90;;;;;;4981036;28;19922;-84
2022/04/15 12:33:24;;;;;;;;;;;26.80;99.90;;;;;;4982212;28;19914;-84
2022/04/15 12:36:03;;;;;;;;;;;26.50;99.90;;;;;;4982446;28;20337;-84
2022/04/15 12:38:29;;;;;;;;;;;26.20;99.90;;;;;;4982763;28;20472;-84
2022/04/15 12:41:01;;;;;;;;;;;26.20;99.90;;;;;;4988506;28;19914;-86
2022/04/15 12:43:27;;;;;;;;;;;26.40;99.90;;;;;;4983012;28;19918;-84
2022/04/15 12:45:54;;;;;;;;;;;26.90;99.90;;;;;;4965259;28;20021;-84
2022/04/15 12:48:23;;;;;;;;;;;27.20;99.90;;;;;;4970430;28;19918;-84
2022/04/15 12:50:55;;;;;;;;;;;27.70;99.90;;;;;;4982752;28;19918;-84
2022/04/15 12:53:21;;;;;;;;;;;27.80;99.90;;;;;;4981227;28;19917;-84
2022/04/15 12:55:48;;;;;;;;;;;28.00;99.90;;;;;;4967317;28;19920;-84
2022/04/15 12:58:26;;;;;;;;;;;28.00;99.90;;;;;;4982290;28;19918;-84
2022/04/15 13:00:54;;;;;;;;;;;26.80;99.90;;;;;;4971582;28;19937;-84
2022/04/15 13:03:20;;;;;;;;;;;26.40;99.90;;;;;;4981773;28;19934;-85
2022/04/15 13:05:46;;;;;;;;;;;27.10;99.90;;;;;;4966769;28;19936;-86
2022/04/15 13:08:13;;;;;;;;;;;27.40;99.90;;;;;;4980250;28;20412;-85
2022/04/15 13:10:39;;;;;;;;;;;26.90;99.90;;;;;;4975429;28;19914;-85
2022/04/15 13:13:04;;;;;;;;;;;26.80;99.90;;;;;;4979579;28;19918;-85
2022/04/15 13:15:30;;;;;;;;;;;27.10;99.90;;;;;;4979346;28;19921;-85
2022/04/15 13:17:56;;;;;;;;;;;26.80;99.90;;;;;;4980739;28;19942;-85
2022/04/15 13:20:21;;;;;;;;;;;26.60;99.90;;;;;;4979811;28;19910;-85
2022/04/15 13:22:47;;;;;;;;;;;27.10;99.90;;;;;;4978850;28;19918;-86
2022/04/15 13:25:13;;;;;;;;;;;26.90;99.90;;;;;;4978659;28;20276;-85
2022/04/15 13:27:38;;;;;;;;;;;26.70;99.90;;;;;;4980255;28;19953;-85
2022/04/15 13:30:04;;;;;;;;;;;26.40;99.90;;;;;;4979974;28;20381;-85
2022/04/15 13:32:29;;;;;;;;;;;26.40;99.90;;;;;;4979153;28;20401;-85
2022/04/15 13:34:55;;;;;;;;;;;26.70;99.90;;;;;;4978569;28;19921;-85
2022/04/15 13:37:21;;;;;;;;;;;26.70;99.90;;;;;;4979434;28;19988;-85
2022/04/15 13:39:47;;;;;;;;;;;26.60;99.90;;;;;;4972805;28;20370;-85
2022/04/15 13:42:13;;;;;;;;;;;26.30;99.90;;;;;;4967098;28;19969;-85
2022/04/15 13:44:38;;;;;;;;;;;26.30;99.90;;;;;;4970744;28;19914;-85
2022/04/15 13:47:04;;;;;;;;;;;26.40;99.90;;;;;;4978855;28;19915;-84
2022/04/15 13:49:30;;;;;;;;;;;26.60;99.90;;;;;;4980535;28;19911;-85
2022/04/15 13:51:55;;;;;;;;;;;25.70;99.90;;;;;;4981195;28;19940;-85
2022/04/15 13:57:05;;;;;;;;;;;25.40;99.90;;;;;;4981575;28;19945;-85
2022/04/15 13:59:31;;;;;;;;;;;25.00;99.90;;;;;;4981928;28;19914;-85
2022/04/15 14:01:57;;;;;;;;;;;24.50;99.90;;;;;;4981007;28;20009;-85
2022/04/15 14:04:23;;;;;;;;;;;24.70;99.90;;;;;;4968462;28;20426;-85
2022/04/15 14:06:49;;;;;;;;;;;25.00;99.90;;;;;;4980250;28;19996;-86
2022/04/15 14:09:18;;;;;;;;;;;25.30;99.90;;;;;;4976726;28;19932;-85
2022/04/15 14:11:45;;;;;;;;;;;25.50;99.90;;;;;;4979843;28;19918;-85
2022/04/15 14:14:14;;;;;;;;;;;24.90;99.90;;;;;;4979287;28;19914;-85
2022/04/15 14:16:40;;;;;;;;;;;24.50;99.90;;;;;;4981315;28;19925;-85
2022/04/15 14:19:06;;;;;;;;;;;24.10;99.90;;;;;;4981601;28;19910;-85
2022/04/15 14:21:32;;;;;;;;;;;24.20;99.90;;;;;;4981825;28;20304;-85
2022/04/15 14:23:58;;;;;;;;;;;23.90;99.90;;;;;;4980879;28;19921;-86
2022/04/15 14:26:24;;;;;;;;;;;24.00;99.90;;;;;;4978182;28;19994;-85
2022/04/15 14:28:49;;;;;;;;;;;24.00;99.90;;;;;;4970066;28;19918;-85
2022/04/15 14:31:15;;;;;;;;;;;24.00;99.90;;;;;;4980782;28;19969;-85
2022/04/15 14:33:41;;;;;;;;;;;23.90;99.90;;;;;;4980790;28;19914;-85
2022/04/15 14:36:06;;;;;;;;;;;23.70;99.90;;;;;;4981690;28;19914;-85
2022/04/15 14:38:32;;;;;;;;;;;23.60;99.90;;;;;;4975849;28;19915;-85
2022/04/15 14:41:04;;;;;;;;;;;23.40;99.90;;;;;;4973689;28;19921;-85
2022/04/15 14:43:30;;;;;;;;;;;22.90;99.90;;;;;;4984029;28;19918;-85
2022/04/15 14:45:55;;;;;;;;;;;22.50;99.90;;;;;;4983587;28;19917;-85
2022/04/15 14:48:22;;;;;;;;;;;22.20;99.90;;;;;;4972092;28;19918;-84
2022/04/15 14:50:48;;;;;;;;;;;22.00;99.90;;;;;;4984931;28;20406;-85
2022/04/15 14:53:13;;;;;;;;;;;21.60;99.90;;;;;;4985669;28;19918;-86
2022/04/15 14:55:39;;;;;;;;;;;21.40;99.90;;;;;;4985607;28;19986;-85
2022/04/15 14:58:07;;;;;;;;;;;21.20;99.90;;;;;;4972028;28;19914;-85
2022/04/15 15:00:35;;;;;;;;;;;21.10;99.90;;;;;;4985798;28;20046;-85
2022/04/15 15:03:01;;;;;;;;;;;21.10;99.90;;;;;;4985600;28;19926;-84
2022/04/15 15:05:26;;;;;;;;;;;21.00;99.90;;;;;;4985658;28;19914;-85
2022/04/15 15:07:52;;;;;;;;;;;20.80;99.90;;;;;;4975971;28;19910;-85
2022/04/15 15:10:17;;;;;;;;;;;20.70;99.90;;;;;;4986090;28;19914;-85
2022/04/15 15:12:44;;;;;;;;;;;20.70;99.90;;;;;;4985114;28;19918;-85
2022/04/15 15:15:10;;;;;;;;;;;20.70;99.90;;;;;;4985289;28;19921;-85
2022/04/15 15:17:35;;;;;;;;;;;20.70;99.90;;;;;;4986149;28;19914;-85
2022/04/15 15:20:01;;;;;;;;;;;20.70;99.90;;;;;;4986254;28;19910;-84
2022/04/15 15:22:26;;;;;;;;;;;20.70;99.90;;;;;;4985584;28;19977;-85
2022/04/15 15:30:34;;;;;;;;;;;20.40;99.90;;;;;;4982977;28;19925;-83
2022/04/15 15:32:59;;;;;;;;;;;20.40;99.90;;;;;;4977268;28;19965;-84
2022/04/15 15:35:26;;;;;;;;;;;20.40;99.90;;;;;;4984069;28;20330;-85
2022/04/15 15:37:51;;;;;;;;;;;20.40;99.90;;;;;;4986248;28;19917;-86
2022/04/15 15:40:19;;;;;;;;;;;20.30;99.90;;;;;;4986538;28;20008;-85
2022/04/15 15:42:44;;;;;;;;;;;20.30;99.90;;;;;;4985478;28;19914;-85
2022/04/15 15:45:12;;;;;;;;;;;20.40;99.90;;;;;;4986529;28;19917;-86
2022/04/15 15:47:38;;;;;;;;;;;20.40;99.90;;;;;;4985679;28;19911;-85
2022/04/15 15:50:03;;;;;;;;;;;20.50;99.90;;;;;;4987144;28;19961;-85
2022/04/15 15:52:29;;;;;;;;;;;20.50;99.90;;;;;;4981077;28;19985;-86
2022/04/15 15:54:54;;;;;;;;;;;20.40;99.90;;;;;;4986339;28;19910;-86
2022/04/15 15:57:20;;;;;;;;;;;20.30;99.90;;;;;;4988236;28;19918;-85
2022/04/15 15:59:45;;;;;;;;;;;20.30;99.90;;;;;;4990532;28;19910;-85
2022/04/15 16:02:11;;;;;;;;;;;20.30;99.90;;;;;;4975371;28;19918;-86
2022/04/15 16:04:37;;;;;;;;;;;20.30;99.90;;;;;;4990657;28;19934;-85
2022/04/15 16:07:02;;;;;;;;;;;20.40;99.90;;;;;;4990784;28;19941;-85
2022/04/15 16:09:27;;;;;;;;;;;20.50;99.90;;;;;;4990658;28;19910;-85
2022/04/15 16:11:53;;;;;;;;;;;20.40;99.90;;;;;;4990401;28;19918;-86
2022/04/15 16:14:18;;;;;;;;;;;20.30;99.90;;;;;;4990851;28;19914;-86
2022/04/15 16:16:44;;;;;;;;;;;20.30;99.90;;;;;;4985336;28;19918;-86
2022/04/15 16:19:09;;;;;;;;;;;20.30;99.90;;;;;;4991021;28;20244;-85
2022/04/15 16:21:35;;;;;;;;;;;20.20;99.90;;;;;;4990100;28;19921;-86
2022/04/15 16:24:01;;;;;;;;;;;20.20;99.90;;;;;;4989622;28;19914;-85
2022/04/15 16:26:27;;;;;;;;;;;20.30;99.90;;;;;;4989936;28;20381;-86
2022/04/15 16:28:52;;;;;;;;;;;20.20;99.90;;;;;;4988822;28;20005;-86
2022/04/15 16:31:17;;;;;;;;;;;20.20;99.90;;;;;;4964153;28;19925;-83
2022/04/15 16:33:44;;;;;;;;;;;20.20;99.90;;;;;;4989999;28;19922;-85
2022/04/15 16:36:10;;;;;;;;;;;20.20;99.90;;;;;;4962185;28;20386;-86
2022/04/15 16:38:35;;;;;;;;;;;20.10;99.90;;;;;;4983236;28;19914;-87
2022/04/15 16:41:01;;;;;;;;;;;20.00;99.90;;;;;;4987925;28;19928;-86
2022/04/15 16:43:27;;;;;;;;;;;19.80;99.90;;;;;;4970910;28;19985;-87
2022/04/15 16:45:53;;;;;;;;;;;19.30;99.90;;;;;;4974930;28;20392;-86
2022/04/15 16:48:19;;;;;;;;;;;19.00;99.90;;;;;;4974646;28;19915;-86
2022/04/15 16:50:44;;;;;;;;;;;18.80;99.90;;;;;;4984338;28;19914;-84
2022/04/15 16:53:10;;;;;;;;;;;18.40;99.90;;;;;;4982855;28;19961;-86
2022/04/15 16:58:38;;;;;;;;;;;17.80;99.90;;;;;;4983323;28;19936;-86
2022/04/15 17:01:11;;;;;;;;;;;17.40;99.90;;;;;;4981970;28;19958;-84
2022/04/15 17:03:40;;;;;;;;;;;17.10;99.90;;;;;;4976214;28;19926;-84
2022/04/15 17:06:05;;;;;;;;;;;16.90;99.90;;;;;;4973136;28;19921;-83
2022/04/15 17:08:31;;;;;;;;;;;16.90;99.90;;;;;;4966757;28;19914;-85
2022/04/15 17:11:00;;;;;;;;;;;16.90;99.90;;;;;;4967231;28;19922;-84
2022/04/15 17:13:26;;;;;;;;;;;16.90;99.90;;;;;;4967882;28;20386;-85
2022/04/15 17:15:52;;;;;;;;;;;16.90;99.90;;;;;;4969713;28;19922;-85
2022/04/15 17:18:18;;;;;;;;;;;16.80;99.90;;;;;;4982302;28;20271;-85
2022/04/15 17:20:44;;;;;;;;;;;16.70;99.90;;;;;;4978221;28;19922;-85
2022/04/15 17:23:09;;;;;;;;;;;16.50;99.90;;;;;;4961752;28;19969;-85
2022/04/15 17:25:35;;;;;;;;;;;16.40;99.90;;;;;;4978330;28;19922;-84
2022/04/15 17:28:00;;;;;;;;;;;16.30;99.90;;;;;;4975687;28;19965;-84
2022/04/15 17:30:26;;;;;;;;;;;16.30;99.90;;;;;;4977851;28;19922;-85
2022/04/15 17:32:51;;;;;;;;;;;16.40;99.90;;;;;;4967844;28;19920;-86
2022/04/15 17:35:17;;;;;;;;;;;16.40;99.90;;;;;;4987163;28;19922;-84
2022/04/15 17:37:42;;;;;;;;;;;16.30;99.90;;;;;;4986676;28;20617;-84
2022/04/15 17:40:08;;;;;;;;;;;16.20;99.90;;;;;;4977864;28;20357;-86
2022/04/15 17:42:33;;;;;;;;;;;16.20;99.90;;;;;;4981816;28;19968;-85
2022/04/15 17:44:59;;;;;;;;;;;16.10;99.90;;;;;;4982828;28;19916;-86
2022/04/15 17:47:24;;;;;;;;;;;16.10;99.90;;;;;;4978137;28;19910;-86
2022/04/15 17:49:50;;;;;;;;;;;16.00;99.90;;;;;;4980906;28;19922;-86
2022/04/15 17:52:15;;;;;;;;;;;16.00;99.90;;;;;;4979474;28;19921;-85
2022/04/15 17:54:40;;;;;;;;;;;15.90;99.90;;;;;;4983124;28;19934;-85
2022/04/15 17:57:07;;;;;;;;;;;15.80;99.90;;;;;;4987206;28;19922;-86
2022/04/15 17:59:33;;;;;;;;;;;15.70;99.90;;;;;;4983865;28;20287;-85
2022/04/15 18:02:02;;;;;;;;;;;15.60;99.90;;;;;;4980977;28;19910;-85
2022/04/15 18:04:29;;;;;;;;;;;15.40;99.90;;;;;;4985683;28;19910;-86
2022/04/15 18:06:54;;;;;;;;;;;15.30;99.90;;;;;;4981902;28;19999;-86
2022/04/15 18:09:20;;;;;;;;;;;15.20;99.90;;;;;;4980372;28;19913;-84
2022/04/15 18:11:46;;;;;;;;;;;15.10;99.90;;;;;;4970719;28;20289;-85
2022/04/15 18:14:12;;;;;;;;;;;15.00;99.90;;;;;;4981829;28;20000;-85
2022/04/15 18:16:37;;;;;;;;;;;14.90;99.90;;;;;;4982312;28;19960;-84
2022/04/15 18:19:04;;;;;;;;;;;14.70;99.90;;;;;;4980578;28;19948;-84
2022/04/15 18:21:29;;;;;;;;;;;14.60;99.90;;;;;;4975987;28;20076;-85
2022/04/15 18:23:54;;;;;;;;;;;14.50;99.90;;;;;;4980097;28;20410;-85
2022/04/15 18:26:20;;;;;;;;;;;14.40;99.90;;;;;;4982281;28;19921;-84
2022/04/15 18:28:45;;;;;;;;;;;14.30;99.90;;;;;;4979671;28;19919;-84
2022/04/15 18:31:13;;;;;;;;;;;14.10;99.90;;;;;;4963314;28;19910;-84
2022/04/15 18:33:39;;;;;;;;;;;14.00;99.90;;;;;;4980311;28;19922;-85
2022/04/15 18:36:05;;;;;;;;;;;13.90;99.90;;;;;;4980511;28;19952;-84
2022/04/15 18:38:30;;;;;;;;;;;13.80;99.90;;;;;;4979086;28;19910;-85
2022/04/15 18:40:57;;;;;;;;;;;13.80;99.90;;;;;;4982292;28;19945;-85
2022/04/15 18:43:23;;;;;;;;;;;13.70;99.90;;;;;;4979823;28;19914;-85
2022/04/15 18:45:48;;;;;;;;;;;13.70;99.90;;;;;;4980851;28;19910;-85
2022/04/15 18:53:42;;;;;;;;;;;13.50;99.90;;;;;;4976029;28;19937;-84